| Time | Avg. Air Temp | Dew Point | Avg. Rel Humidity | Avg. 2 Min Wind Speed | Max Gust Velocity | MGV Time | MGV Direction | Avg. Spot Wind Velocity |
|---|---|---|---|---|---|---|---|---|
| 2026-05-06 17:00:00 | 8° C | -0° C | 55% | 15 km/h | 19 km/h | 16:59:00 | W | 15 km/h |
| 16:00:00 | 7° C | -0° C | 57% | 18 km/h | 27 km/h | 15:58:00 | W | 19 km/h |
| 15:00:00 | 7° C | -1° C | 59% | 14 km/h | 19 km/h | 14:57:00 | W | 13 km/h |
| 14:00:00 | 6° C | -0° C | 62% | 16 km/h | 18 km/h | 14:00:00 | SW | 13 km/h |
| 13:00:00 | 6° C | -1° C | 61% | 11 km/h | 18 km/h | 13:00:00 | S | 12 km/h |
| 12:00:00 | 6° C | -2° C | 57% | 10 km/h | 17 km/h | 11:58:00 | SW | 12 km/h |
| 11:00:00 | 6° C | -4° C | 52% | 12 km/h | 14 km/h | 10:58:00 | S | 13 km/h |
| 10:00:00 | 5° C | -4° C | 50% | 7 km/h | 9 km/h | 09:56:00 | S | 7 km/h |
| 09:00:00 | 6° C | -4° C | 49% | 7 km/h | 9 km/h | 08:59:00 | S | 7 km/h |
| 08:00:00 | 5° C | -3° C | 53% | 19 km/h | 22 km/h | 07:58:00 | W | 18 km/h |
| 07:00:00 | 6° C | -5° C | 47% | 23 km/h | 25 km/h | 07:00:00 | W | 20 km/h |
| 06:00:00 | 5° C | -6° C | 45% | 24 km/h | 30 km/h | 05:57:00 | W | 26 km/h |
| 05:00:00 | 6° C | -5° C | 44% | 23 km/h | 28 km/h | 04:57:00 | W | 24 km/h |
| 04:00:00 | 6° C | -6° C | 43% | 30 km/h | 31 km/h | 03:58:00 | W | 29 km/h |
| 03:00:00 | 6° C | -6° C | 41% | 25 km/h | 28 km/h | 02:57:00 | W | 24 km/h |
| 02:00:00 | 7° C | -6° C | 39% | 21 km/h | 23 km/h | 01:58:00 | W | 21 km/h |
| 01:00:00 | 6° C | -7° C | 38% | 19 km/h | 20 km/h | 00:57:00 | W | 19 km/h |
| 00:00:00 | 6° C | -6° C | 38% | 14 km/h | 15 km/h | 23:59:00 | W | 12 km/h |
| 23:00:00 | 6° C | -8° C | 37% | 7 km/h | 8 km/h | 22:56:00 | W | 8 km/h |
| 22:00:00 | 6° C | -8° C | 37% | 7 km/h | 9 km/h | 21:56:00 | NE | 8 km/h |
| 21:00:00 | 5° C | -7° C | 38% | 5 km/h | 8 km/h | 20:58:00 | N | 4 km/h |
| 20:00:00 | 5° C | -8° C | 37% | 13 km/h | 18 km/h | 19:57:00 | NE | 13 km/h |
| 19:00:00 | 5° C | -8° C | 39% | 4 km/h | 16 km/h | 18:57:00 | NE | 5 km/h |
| 18:00:00 | 6° C | -8° C | 37% | 10 km/h | 23 km/h | 17:59:00 | NE | 5 km/h |
Subpeak Weather
| Time | Avg. Air Temp | Dew Point | Avg. Rel Humidity | Avg. 2 Min Wind Speed | Max Gust Velocity | MGV Time | MGV Direction | Avg. Spot Wind Velocity |
|---|---|---|---|---|---|---|---|---|
| 2026-05-06 17:00:00 | 8° C | -0° C | 55% | 15 km/h | 19 km/h | 16:59:00 | W | 15 km/h |
| 16:55:00 | 8° C | -0° C | 55% | 13 km/h | 19 km/h | 16:51:00 | SW | 13 km/h |
| 16:50:00 | 8° C | -1° C | 55% | 15 km/h | 21 km/h | 16:46:00 | SW | 18 km/h |
| 16:45:00 | 8° C | -1° C | 57% | 11 km/h | 23 km/h | 16:42:00 | SW | 15 km/h |
| 16:40:00 | 8° C | -0° C | 56% | 20 km/h | 28 km/h | 16:40:00 | SW | 17 km/h |
| 16:35:00 | 8° C | -0° C | 57% | 16 km/h | 28 km/h | 16:33:00 | SW | 18 km/h |
| 16:30:00 | 8° C | -0° C | 57% | 16 km/h | 24 km/h | 16:30:00 | SW | 14 km/h |
| 16:25:00 | 8° C | -1° C | 57% | 20 km/h | 25 km/h | 16:21:00 | SW | 20 km/h |
| 16:20:00 | 7° C | -0° C | 58% | 21 km/h | 29 km/h | 16:18:00 | W | 21 km/h |
| 16:15:00 | 8° C | 0° C | 59% | 15 km/h | 22 km/h | 16:12:00 | NW | 18 km/h |
| 16:10:00 | 7° C | -0° C | 59% | 19 km/h | 22 km/h | 16:10:00 | W | 17 km/h |
| 16:05:00 | 7° C | -0° C | 58% | 16 km/h | 22 km/h | 16:01:00 | W | 18 km/h |
| 16:00:00 | 7° C | -0° C | 57% | 18 km/h | 27 km/h | 15:58:00 | W | 19 km/h |




